Time;durP1;ratioP1;P1;durP2;ratioP2;P2;SDS_P1;SDS_P2;PMS_P1;PMS_P2;Temp;Humidity;BMP_temperature;BMP_pressure;BME280_temperature;BME280_humidity;BME280_pressure;Samples;Min_cycle;Max_cycle;Signal;HPM_P1;HPM_P2
2022/03/09 00:01:28;;;;;;;28.85;13.02;;;;;;;-2.34;68.43;100927.91;4423801;32;20085;-81
2022/03/09 00:03:56;;;;;;;32.83;13.68;;;;;;;-2.26;67.58;100926.59;4409749;32;20102;-81
2022/03/09 00:06:23;;;;;;;28.58;13.13;;;;;;;-2.31;67.96;100924.59;4423922;32;20445;-81
2022/03/09 00:08:51;;;;;;;31.77;14.95;;;;;;;-2.36;68.07;100919.22;4423678;32;20108;-81
2022/03/09 00:11:19;;;;;;;29.33;12.80;;;;;;;-2.44;68.76;100929.19;4407816;32;20097;-81
2022/03/09 00:13:46;;;;;;;32.05;13.02;;;;;;;-2.51;69.13;100929.69;4423791;32;20094;-81
2022/03/09 00:16:14;;;;;;;30.67;14.50;;;;;;;-2.45;68.59;100929.06;4423555;32;20445;-81
2022/03/09 00:18:41;;;;;;;27.65;12.57;;;;;;;-2.63;70.12;100929.06;4423457;32;20476;-81
2022/03/09 00:21:09;;;;;;;28.75;13.57;;;;;;;-2.79;70.74;100940.31;4423582;32;20144;-81
2022/03/09 00:23:36;;;;;;;22.00;11.73;;;;;;;-2.89;71.85;100938.97;4423623;32;20102;-81
2022/03/09 00:26:04;;;;;;;27.35;12.80;;;;;;;-2.63;69.89;100933.34;4423552;32;20159;-81
2022/03/09 00:28:33;;;;;;;31.85;13.65;;;;;;;-2.70;70.38;100929.56;4423499;32;20101;-81
2022/03/09 00:31:03;;;;;;;31.92;13.68;;;;;;;-2.72;71.01;100936.31;4423581;32;20119;-81
2022/03/09 00:33:33;;;;;;;29.40;12.70;;;;;;;-2.74;70.63;100935.37;4423530;32;20124;-81
2022/03/09 00:36:01;;;;;;;26.42;12.50;;;;;;;-2.58;70.36;100948.25;4423530;32;20893;-81
2022/03/09 00:38:28;;;;;;;33.88;13.05;;;;;;;-2.52;69.28;100934.75;4423444;32;20522;-81
2022/03/09 00:40:56;;;;;;;26.77;13.40;;;;;;;-2.63;70.51;100946.25;4423452;32;20119;-81
2022/03/09 00:43:23;;;;;;;31.52;14.05;;;;;;;-2.63;70.53;100947.12;4423306;32;20085;-81
2022/03/09 00:45:51;;;;;;;34.42;17.17;;;;;;;-2.52;70.30;100940.78;4409241;32;20101;-81
2022/03/09 00:48:18;;;;;;;39.78;18.77;;;;;;;-2.41;70.47;100925.84;4423470;32;20174;-81
2022/03/09 00:50:46;;;;;;;29.42;15.18;;;;;;;-2.27;69.97;100924.81;4423425;32;20605;-81
2022/03/09 00:53:13;;;;;;;40.72;17.95;;;;;;;-2.11;68.87;100925.56;4423342;32;20166;-81
2022/03/09 00:55:41;;;;;;;28.50;14.40;;;;;;;-1.95;68.05;100923.75;4409053;32;20094;-81
2022/03/09 00:58:08;;;;;;;29.90;13.27;;;;;;;-1.80;67.93;100918.44;4408951;32;20101;-81
2022/03/09 01:00:38;;;;;;;22.90;12.27;;;;;;;-1.69;68.12;100926.69;4409304;32;20077;-81
2022/03/09 01:03:06;;;;;;;26.98;11.88;;;;;;;-1.69;68.30;100930.16;4408796;32;20170;-81
2022/03/09 01:05:33;;;;;;;33.05;11.90;;;;;;;-1.68;67.74;100918.13;4423217;32;20484;-81
2022/03/09 01:08:02;;;;;;;40.17;16.80;;;;;;;-1.72;69.40;100911.91;4423053;32;20471;-81
2022/03/09 01:10:29;;;;;;;36.65;14.68;;;;;;;-1.70;68.55;100904.22;4423174;32;20077;-81
2022/03/09 01:12:57;;;;;;;38.08;18.62;;;;;;;-1.73;70.12;100909.28;4422999;32;20166;-81
2022/03/09 01:15:43;;;;;;;49.75;18.87;;;;;;;-1.74;69.98;100908.37;4422964;32;20106;-81
2022/03/09 01:18:29;;;;;;;36.75;15.30;;;;;;;-1.82;70.26;100904.56;4422869;32;20132;-81
2022/03/09 01:20:56;;;;;;;58.47;22.65;;;;;;;-1.87;68.85;100894.81;4422866;32;20088;-81
2022/03/09 01:23:24;;;;;;;44.08;19.23;;;;;;;-1.79;71.13;100889.22;4422323;32;20840;-81
2022/03/09 01:25:54;;;;;;;46.67;19.65;;;;;;;-1.76;68.94;100897.09;4422662;32;20102;-81
2022/03/09 01:28:21;;;;;;;39.92;17.17;;;;;;;-1.89;69.75;100892.19;4408913;32;20437;-81
2022/03/09 01:30:49;;;;;;;34.03;15.00;;;;;;;-1.80;68.30;100896.88;4422797;32;20191;-81
2022/03/09 01:33:16;;;;;;;31.92;14.35;;;;;;;-1.88;68.87;100898.22;4408452;32;20082;-81
2022/03/09 01:35:43;;;;;;;35.65;13.27;;;;;;;-1.97;68.93;100902.16;4422643;32;20123;-81
2022/03/09 01:38:11;;;;;;;21.37;11.32;;;;;;;-2.08;69.20;100903.34;4422665;32;20177;-81
2022/03/09 01:40:38;;;;;;;25.35;12.27;;;;;;;-2.07;68.75;100911.97;4422677;32;20084;-81
2022/03/09 01:43:05;;;;;;;27.45;11.90;;;;;;;-2.07;68.90;100915.44;4422653;32;20116;-81
2022/03/09 01:45:35;;;;;;;32.67;11.25;;;;;;;-1.98;67.99;100908.16;4422599;32;20124;-81
2022/03/09 01:48:02;;;;;;;22.37;10.05;;;;;;;-1.86;67.60;100912.09;4422436;32;20474;-81
2022/03/09 01:50:30;;;;;;;27.73;11.02;;;;;;;-1.81;67.87;100921.81;4422316;32;20155;-81
2022/03/09 01:52:59;;;;;;;23.23;10.32;;;;;;;-1.70;66.54;100917.16;4422401;32;20098;-81
2022/03/09 01:55:26;;;;;;;19.27;9.93;;;;;;;-1.74;66.34;100917.81;4422338;32;20106;-81
2022/03/09 01:57:55;;;;;;;21.92;10.50;;;;;;;-1.77;66.57;100915.09;4422414;32;20105;-81
2022/03/09 02:00:22;;;;;;;19.27;10.07;;;;;;;-1.68;66.29;100923.28;4422329;32;20097;-81
2022/03/09 02:02:50;;;;;;;21.65;10.15;;;;;;;-1.68;67.02;100928.44;4422281;32;20140;-81
2022/03/09 02:05:17;;;;;;;25.55;11.43;;;;;;;-1.61;66.76;100934.78;4422159;32;20550;-81
2022/03/09 02:10:31;;;;;;;42.35;19.17;;;;;;;-1.27;68.52;100916.53;4422322;32;20522;-81
2022/03/09 02:12:59;;;;;;;48.17;18.87;;;;;;;-1.25;68.16;100926.09;4422210;32;20164;-81
2022/03/09 02:15:26;;;;;;;41.70;17.75;;;;;;;-1.33;68.39;100931.75;4422089;32;20382;-81
2022/03/09 02:17:54;;;;;;;43.17;18.17;;;;;;;-1.45;69.46;100934.66;4421890;32;20208;-81
2022/03/09 02:20:21;;;;;;;34.20;16.08;;;;;;;-1.57;69.35;100932.41;4422007;32;20081;-81
2022/03/09 02:22:48;;;;;;;34.53;16.40;;;;;;;-1.55;69.09;100925.63;4421972;32;20155;-81
2022/03/09 02:25:16;;;;;;;35.90;16.42;;;;;;;-1.56;68.90;100916.06;4421932;32;20484;-81
2022/03/09 02:27:44;;;;;;;36.95;16.92;;;;;;;-1.48;69.35;100913.84;4422058;32;20093;-81
2022/03/09 02:30:19;;;;;;;36.92;17.10;;;;;;;-1.42;69.04;100919.28;4421860;32;20433;-81
2022/03/09 02:32:49;;;;;;;35.17;16.52;;;;;;;-1.41;69.40;100930.50;4422063;32;20073;-81
2022/03/09 02:35:18;;;;;;;36.15;16.62;;;;;;;-1.45;69.92;100929.47;4423613;32;20093;-81
2022/03/09 02:37:46;;;;;;;38.75;16.75;;;;;;;-1.45;69.35;100927.81;4424091;32;20227;-81
2022/03/09 02:40:16;;;;;;;38.58;17.00;;;;;;;-1.45;69.25;100925.22;4424035;32;20093;-81
2022/03/09 02:42:43;;;;;;;37.55;16.30;;;;;;;-1.47;69.35;100929.41;4424090;32;20437;-81
2022/03/09 02:45:11;;;;;;;40.58;16.60;;;;;;;-1.43;69.08;100925.28;4424110;32;20159;-81
2022/03/09 02:47:44;;;;;;;40.85;17.50;;;;;;;-1.32;69.94;100928.34;4424022;32;20392;-81
2022/03/09 02:50:13;;;;;;;43.13;18.80;;;;;;;-1.25;68.51;100936.44;4409929;32;20130;-81
2022/03/09 02:52:42;;;;;;;40.70;17.35;;;;;;;-1.32;69.26;100936.97;4424206;32;20093;-80
2022/03/09 02:55:10;;;;;;;42.70;17.10;;;;;;;-1.30;69.22;100939.66;4424142;32;20457;-81
2022/03/09 02:57:39;;;;;;;36.05;17.67;;;;;;;-1.20;68.44;100947.00;4424018;32;20473;-81
2022/03/09 03:00:08;;;;;;;33.55;15.23;;;;;;;-1.18;68.38;100941.87;4423979;32;20133;-81
2022/03/09 03:02:36;;;;;;;41.33;17.37;;;;;;;-1.16;67.64;100938.56;4424091;32;20117;-80
2022/03/09 03:05:05;;;;;;;36.75;15.95;;;;;;;-1.11;67.76;100928.41;4423942;32;20102;-80
2022/03/09 03:07:33;;;;;;;36.20;16.65;;;;;;;-1.10;67.43;100940.50;4424085;32;20203;-81
2022/03/09 03:10:00;;;;;;;38.35;15.60;;;;;;;-1.07;67.36;100930.31;4424013;32;20081;-81
2022/03/09 03:12:27;;;;;;;31.62;14.40;;;;;;;-1.04;67.22;100923.56;4423963;32;20097;-81
2022/03/09 03:14:54;;;;;;;34.03;14.70;;;;;;;-1.03;66.51;100914.97;4409716;32;20121;-81
2022/03/09 03:17:22;;;;;;;37.25;14.95;;;;;;;-1.04;66.36;100910.63;4409536;32;20461;-79
2022/03/09 03:19:49;;;;;;;34.08;14.40;;;;;;;-1.08;66.28;100913.91;4409564;32;20441;-81
2022/03/09 03:22:17;;;;;;;31.12;14.00;;;;;;;-1.12;66.37;100905.97;4423852;32;20153;-81
2022/03/09 03:24:44;;;;;;;33.10;14.52;;;;;;;-1.16;66.59;100914.41;4423792;32;20505;-81
2022/03/09 03:27:12;;;;;;;25.98;13.70;;;;;;;-1.33;67.96;100913.66;4423917;32;20512;-81
2022/03/09 03:29:39;;;;;;;33.15;15.30;;;;;;;-1.42;67.63;100920.97;4423595;32;20129;-81
2022/03/09 03:32:07;;;;;;;35.75;15.23;;;;;;;-1.50;67.75;100918.94;4423747;32;20441;-81
2022/03/09 03:34:34;;;;;;;40.28;16.60;;;;;;;-1.61;68.95;100919.28;4423759;32;20152;-81
2022/03/09 03:37:02;;;;;;;34.58;15.85;;;;;;;-1.73;70.08;100914.44;4423846;32;20536;-81
2022/03/09 03:39:29;;;;;;;39.60;17.42;;;;;;;-1.78;70.07;100914.22;4423709;32;20094;-81
2022/03/09 03:41:56;;;;;;;36.13;16.15;;;;;;;-1.73;69.91;100912.75;4423881;32;20081;-81
2022/03/09 03:44:24;;;;;;;34.22;15.98;;;;;;;-1.70;69.82;100914.56;4423521;32;20706;-81
2022/03/09 03:46:51;;;;;;;38.30;16.58;;;;;;;-1.64;70.30;100919.13;4423553;32;20120;-81
2022/03/09 03:49:18;;;;;;;40.65;17.62;;;;;;;-1.52;69.27;100923.19;4423652;32;20414;-81
2022/03/09 03:51:45;;;;;;;43.38;16.50;;;;;;;-1.45;69.01;100917.47;4423705;32;20097;-81
2022/03/09 03:54:12;;;;;;;36.53;15.88;;;;;;;-1.34;68.57;100915.34;4423491;32;20174;-81
2022/03/09 03:56:39;;;;;;;43.67;16.55;;;;;;;-1.34;69.66;100924.78;4409324;32;20109;-81
2022/03/09 03:59:07;;;;;;;37.00;15.23;;;;;;;-1.49;70.87;100925.00;4396539;32;20156;-81
2022/03/09 04:01:34;;;;;;;36.92;16.27;;;;;;;-1.61;71.31;100917.56;4423503;32;20152;-81
2022/03/09 04:04:02;;;;;;;37.42;16.85;;;;;;;-1.61;71.71;100914.13;4423552;32;20153;-81
2022/03/09 04:06:29;;;;;;;32.85;15.40;;;;;;;-1.52;71.81;100924.84;4423777;32;20120;-81
2022/03/09 04:08:56;;;;;;;33.85;16.23;;;;;;;-1.53;71.80;100918.81;4423447;32;20085;-81
2022/03/09 04:11:24;;;;;;;40.63;16.27;;;;;;;-1.50;71.63;100923.22;4423647;32;20110;-81
2022/03/09 04:13:51;;;;;;;38.03;14.98;;;;;;;-1.52;71.95;100920.59;4409227;32;20136;-81
2022/03/09 04:16:18;;;;;;;40.95;16.40;;;;;;;-1.54;71.34;100917.03;4423500;32;20461;-81
2022/03/09 04:18:46;;;;;;;38.22;15.77;;;;;;;-1.54;71.23;100909.28;4409266;32;20440;-81
2022/03/09 04:21:13;;;;;;;34.17;16.35;;;;;;;-1.57;72.65;100908.25;4423556;32;20106;-81
2022/03/09 04:23:40;;;;;;;33.05;16.37;;;;;;;-1.60;73.06;100905.53;4423472;32;20127;-81
2022/03/09 04:26:10;;;;;;;31.83;15.05;;;;;;;-1.62;73.47;100899.44;4423644;32;20430;-81
2022/03/09 04:28:37;;;;;;;34.45;16.12;;;;;;;-1.65;73.35;100902.75;4423383;32;20451;-81
2022/03/09 04:31:06;;;;;;;36.97;16.20;;;;;;;-1.66;72.78;100903.59;4423314;32;20199;-81
2022/03/09 04:33:34;;;;;;;39.90;15.73;;;;;;;-1.51;70.60;100909.44;4409116;32;20534;-81
2022/03/09 04:36:02;;;;;;;37.40;16.40;;;;;;;-1.58;72.35;100914.25;4409193;32;20100;-81
2022/03/09 04:38:29;;;;;;;35.50;17.05;;;;;;;-1.62;72.20;100909.78;4423981;32;20085;-81
2022/03/09 04:40:57;;;;;;;37.00;16.30;;;;;;;-1.61;72.03;100908.94;4423311;32;20761;-81
2022/03/09 04:43:24;;;;;;;31.90;14.93;;;;;;;-1.57;71.85;100911.72;4423425;32;20163;-81
2022/03/09 04:45:52;;;;;;;37.78;16.90;;;;;;;-1.60;72.50;100914.16;4409206;32;20105;-81
2022/03/09 04:48:20;;;;;;;39.55;17.25;;;;;;;-1.57;72.34;100911.72;4424114;32;20127;-81
2022/03/09 04:50:47;;;;;;;44.38;17.52;;;;;;;-1.65;72.59;100920.84;4424216;32;20097;-81
2022/03/09 04:53:14;;;;;;;45.38;17.17;;;;;;;-1.53;71.76;100910.16;4423775;32;20159;-81
2022/03/09 04:55:41;;;;;;;38.88;16.85;;;;;;;-1.53;71.86;100915.34;4423235;32;20145;-81
2022/03/09 04:58:09;;;;;;;36.47;17.33;;;;;;;-1.48;71.55;100913.84;4422948;32;20107;-81
2022/03/09 05:00:36;;;;;;;44.47;17.77;;;;;;;-1.45;71.76;100920.06;4409884;32;20093;-81
2022/03/09 05:03:04;;;;;;;37.10;16.80;;;;;;;-1.43;71.27;100919.22;4409836;32;20120;-81
2022/03/09 05:05:31;;;;;;;36.17;17.00;;;;;;;-1.38;70.65;100925.47;4408897;32;20480;-81
2022/03/09 05:07:58;;;;;;;44.08;17.23;;;;;;;-1.38;71.12;100915.13;4422999;32;20498;-81
2022/03/09 05:10:26;;;;;;;46.13;18.40;;;;;;;-1.31;72.73;100910.34;4423125;32;20481;-81
2022/03/09 05:12:53;;;;;;;43.85;17.05;;;;;;;-1.30;71.95;100903.47;4412027;32;20097;-81
2022/03/09 05:15:20;;;;;;;40.58;17.92;;;;;;;-1.30;71.34;100899.16;4433232;32;20135;-82
2022/03/09 05:17:51;;;;;;;44.58;18.12;;;;;;;-1.19;70.68;100898.75;4437828;32;20131;-81
2022/03/09 05:20:19;;;;;;;41.95;17.30;;;;;;;-1.16;70.91;100897.19;4437584;32;20146;-82
2022/03/09 05:22:48;;;;;;;46.28;18.30;;;;;;;-1.21;71.59;100898.66;4438736;32;20085;-81
2022/03/09 05:25:16;;;;;;;43.55;19.20;;;;;;;-1.31;71.37;100912.00;4439085;32;20097;-81
2022/03/09 05:27:43;;;;;;;42.28;18.55;;;;;;;-1.31;71.37;100910.34;4438182;32;20085;-81
2022/03/09 05:30:11;;;;;;;44.08;18.83;;;;;;;-1.30;71.17;100913.78;4438042;32;20404;-82
2022/03/09 05:32:40;;;;;;;60.97;19.58;;;;;;;-1.22;72.03;100915.00;4423835;32;20183;-82
2022/03/09 05:35:09;;;;;;;74.75;20.23;;;;;;;-1.18;70.91;100913.44;4438805;32;20153;-82
2022/03/09 05:37:42;;;;;;;48.45;18.20;;;;;;;-1.16;71.19;100917.88;4438297;32;20115;-81
2022/03/09 05:40:11;;;;;;;65.05;18.30;;;;;;;-1.18;71.46;100914.31;4433177;32;20094;-82
2022/03/09 05:42:43;;;;;;;44.28;18.50;;;;;;;-1.11;71.35;100913.78;4433509;32;20153;-82
2022/03/09 05:45:12;;;;;;;36.90;16.85;;;;;;;-0.94;70.76;100911.03;4423374;32;20105;-82
2022/03/09 05:47:52;;;;;;;24.20;11.90;;;;;;;-0.85;69.46;100909.72;4437989;32;20103;-82
2022/03/09 05:50:20;;;;;;;29.12;12.65;;;;;;;-0.42;63.96;100913.22;4437793;32;20366;-82
2022/03/09 05:52:47;;;;;;;31.52;11.98;;;;;;;-0.18;62.71;100921.06;4437911;32;20101;-82
2022/03/09 05:55:14;;;;;;;30.73;10.43;;;;;;;0.00;62.32;100924.41;4437727;32;20113;-82
2022/03/09 05:57:41;;;;;;;19.27;10.63;;;;;;;0.22;60.89;100933.91;4436551;32;20159;-82
2022/03/09 06:00:09;;;;;;;22.95;9.52;;;;;;;0.37;59.91;100941.38;4424050;32;20159;-82
2022/03/09 06:02:37;;;;;;;19.23;8.93;;;;;;;0.62;57.64;100949.25;4422415;32;20093;-82
2022/03/09 06:05:05;;;;;;;26.62;10.10;;;;;;;0.87;56.37;100955.34;4422277;32;20472;-81
2022/03/09 06:07:33;;;;;;;17.98;9.07;;;;;;;0.94;55.81;100957.31;4422572;32;20156;-81
2022/03/09 06:10:01;;;;;;;23.60;9.85;;;;;;;0.97;56.13;100957.44;4432895;32;20097;-81
2022/03/09 06:12:29;;;;;;;20.77;8.05;;;;;;;1.12;55.22;100962.28;4424295;32;20596;-82
2022/03/09 06:14:56;;;;;;;16.58;9.20;;;;;;;1.24;54.77;100965.34;4439108;32;20116;-81
2022/03/09 06:17:30;;;;;;;20.35;9.32;;;;;;;1.31;54.75;100969.91;4434322;32;20154;-81
2022/03/09 06:19:58;;;;;;;18.33;9.32;;;;;;;1.45;54.23;100973.00;4439445;32;20501;-81
2022/03/09 06:22:25;;;;;;;23.83;10.68;;;;;;;1.42;54.23;100980.66;4439889;32;20090;-81
2022/03/09 06:24:53;;;;;;;18.55;10.15;;;;;;;1.54;53.81;100977.59;4439860;32;20093;-81
2022/03/09 06:27:20;;;;;;;23.38;10.32;;;;;;;1.59;53.81;100963.03;4439742;32;20115;-81
2022/03/09 06:29:47;;;;;;;20.83;10.48;;;;;;;1.61;53.96;100966.59;4439277;32;20088;-81
2022/03/09 06:32:15;;;;;;;20.85;11.23;;;;;;;1.63;53.97;100967.53;4439236;32;20147;-81
2022/03/09 06:34:42;;;;;;;21.90;12.45;;;;;;;1.71;53.98;100981.66;4432181;32;20105;-81
2022/03/09 06:37:09;;;;;;;19.45;11.40;;;;;;;1.79;53.93;100974.09;4430896;32;20483;-81
2022/03/09 06:39:36;;;;;;;22.77;11.35;;;;;;;1.85;53.57;100972.59;4431079;32;20793;-82
2022/03/09 06:42:04;;;;;;;27.83;12.30;;;;;;;1.79;54.01;100976.69;4431928;32;20522;-83
2022/03/09 06:44:31;;;;;;;23.23;10.48;;;;;;;1.81;53.89;100973.31;4423755;32;20521;-82
2022/03/09 06:46:59;;;;;;;29.55;11.73;;;;;;;1.81;54.04;100972.44;4409683;32;20316;-83
2022/03/09 06:49:26;;;;;;;27.13;12.50;;;;;;;1.88;53.76;100969.22;4423758;32;20484;-83
2022/03/09 06:51:53;;;;;;;27.85;11.48;;;;;;;1.95;53.87;100989.37;4423966;32;20101;-82
2022/03/09 06:54:21;;;;;;;33.40;13.00;;;;;;;1.94;54.06;100987.59;4409998;32;20116;-82
2022/03/09 06:56:51;;;;;;;41.45;15.95;;;;;;;2.01;54.06;100986.06;4409425;32;20076;-80
2022/03/09 06:59:18;;;;;;;45.25;16.73;;;;;;;2.10;54.06;100989.84;4423969;32;20074;-82
2022/03/09 07:01:46;;;;;;;36.00;14.15;;;;;;;2.28;53.47;100988.69;4423823;32;20090;-82
2022/03/09 07:04:14;;;;;;;33.13;13.93;;;;;;;2.29;53.74;100993.03;4396821;32;20113;-82
2022/03/09 07:06:41;;;;;;;33.13;14.73;;;;;;;2.47;52.92;100998.81;4424171;32;20093;-81
2022/03/09 07:09:09;;;;;;;40.60;15.70;;;;;;;2.47;52.98;100991.00;4423652;32;20151;-81
2022/03/09 07:11:36;;;;;;;43.05;16.30;;;;;;;2.53;53.20;100985.13;4423422;32;20108;-80
2022/03/09 07:14:03;;;;;;;21.35;10.93;;;;;;;2.74;52.54;100987.47;4423017;32;20130;-82
2022/03/09 07:16:31;;;;;;;25.15;12.30;;;;;;;2.72;52.85;100990.03;4423912;32;20086;-79
2022/03/09 07:18:58;;;;;;;21.20;11.98;;;;;;;2.79;52.62;100986.78;4423316;32;20147;-80
2022/03/09 07:21:25;;;;;;;31.40;14.07;;;;;;;2.88;52.66;100991.38;4418061;32;20510;-80
2022/03/09 07:23:56;;;;;;;45.40;16.87;;;;;;;3.05;52.05;101003.16;4438963;32;20173;-80
2022/03/09 07:26:23;;;;;;;37.10;15.52;;;;;;;3.30;51.50;101012.53;4438875;32;20076;-81
2022/03/09 07:28:50;;;;;;;54.70;19.35;;;;;;;3.24;51.82;101016.66;4424611;32;20533;-80
2022/03/09 07:31:17;;;;;;;45.85;18.02;;;;;;;3.32;51.73;101023.87;4439167;32;20093;-83
2022/03/09 07:33:45;;;;;;;36.72;15.57;;;;;;;3.40;51.34;101031.03;4424577;32;20108;-82
2022/03/09 07:36:12;;;;;;;35.80;15.77;;;;;;;3.34;51.46;101027.37;4438864;32;20400;-83
2022/03/09 07:38:43;;;;;;;42.28;15.40;;;;;;;3.40;51.15;101024.09;4413116;32;20090;-82
2022/03/09 07:41:31;;;;;;;26.90;13.80;;;;;;;3.12;52.41;101006.81;4438879;32;20094;-83
2022/03/09 07:44:00;;;;;;;26.35;12.27;;;;;;;3.37;51.71;101002.28;4436672;32;20128;-83
2022/03/09 07:46:28;;;;;;;28.20;13.13;;;;;;;3.43;51.49;100981.56;4420588;32;20208;-81
2022/03/09 07:48:55;;;;;;;24.48;12.57;;;;;;;3.36;52.01;100970.16;4439075;32;20093;-82
2022/03/09 07:51:22;;;;;;;35.30;13.13;;;;;;;3.59;51.36;100969.00;4424822;32;20105;-82
2022/03/09 07:53:50;;;;;;;40.38;17.02;;;;;;;3.81;51.33;100977.34;4439578;32;20101;-81
2022/03/09 07:56:17;;;;;;;59.25;20.80;;;;;;;3.78;50.90;100978.19;4425085;32;20381;-82
2022/03/09 07:58:44;;;;;;;47.65;17.60;;;;;;;4.05;49.95;100979.69;4424645;32;20192;-82
2022/03/09 08:01:12;;;;;;;44.33;18.98;;;;;;;4.01;49.83;100972.66;4424239;32;20101;-80
2022/03/09 08:03:39;;;;;;;47.65;19.62;;;;;;;4.15;49.39;100979.06;4425135;32;20892;-81
2022/03/09 08:06:09;;;;;;;43.55;16.65;;;;;;;4.18;49.55;100975.66;4438756;32;20096;-82
2022/03/09 08:08:37;;;;;;;49.22;17.37;;;;;;;4.37;49.16;100971.75;4438872;32;20108;-83
2022/03/09 08:11:07;;;;;;;39.20;15.68;;;;;;;4.61;48.86;100984.47;4424161;32;20117;-82
2022/03/09 08:13:34;;;;;;;32.22;13.43;;;;;;;4.67;48.96;100980.25;4439139;32;20089;-84
2022/03/09 08:16:07;;;;;;;33.55;13.85;;;;;;;4.51;48.82;100984.25;4422539;32;20518;-82
2022/03/09 08:18:37;;;;;;;37.40;14.32;;;;;;;4.54;48.82;100980.84;4423590;32;20090;-82
2022/03/09 08:21:04;;;;;;;29.00;13.52;;;;;;;4.45;48.85;100978.91;4424191;32;20128;-82
2022/03/09 08:23:32;;;;;;;27.50;13.25;;;;;;;4.34;49.36;100972.53;4424291;32;20124;-82
2022/03/09 08:26:00;;;;;;;29.08;14.65;;;;;;;4.28;49.65;100978.53;4409800;32;20089;-82
2022/03/09 08:28:28;;;;;;;34.30;15.07;;;;;;;4.59;48.86;100979.19;4423688;32;20093;-81
2022/03/09 08:30:55;;;;;;;27.45;13.88;;;;;;;4.67;48.54;100979.37;4422797;32;20097;-82
2022/03/09 08:33:22;;;;;;;26.12;12.68;;;;;;;4.56;49.15;100973.94;4422322;32;20624;-81
2022/03/09 08:35:49;;;;;;;27.08;11.52;;;;;;;4.47;49.13;100966.75;4425752;32;20089;-82
2022/03/09 08:38:17;;;;;;;25.50;13.60;;;;;;;4.44;48.97;100971.03;4413427;32;20157;-81
2022/03/09 08:40:44;;;;;;;26.00;11.73;;;;;;;4.60;48.72;100974.88;4425809;32;20121;-81
2022/03/09 08:43:11;;;;;;;24.25;12.85;;;;;;;4.52;49.26;100959.94;4438951;32;20486;-82
2022/03/09 08:45:39;;;;;;;30.12;12.63;;;;;;;4.92;48.23;100963.38;4438556;32;20138;-83
2022/03/09 08:48:06;;;;;;;25.30;11.30;;;;;;;5.07;48.17;100960.19;4423827;32;20441;-82
2022/03/09 08:50:33;;;;;;;21.50;11.50;;;;;;;5.31;47.89;100961.50;4438483;32;20089;-82
2022/03/09 08:53:08;;;;;;;24.45;12.13;;;;;;;5.49;46.87;100952.28;4424839;32;20558;-82
2022/03/09 08:55:35;;;;;;;26.95;11.55;;;;;;;5.42;47.24;100950.41;4434173;32;20085;-81
2022/03/09 08:58:03;;;;;;;26.10;12.18;;;;;;;5.91;46.22;100953.84;4435487;32;20123;-81
2022/03/09 09:00:30;;;;;;;19.15;10.65;;;;;;;5.99;46.34;100952.28;4438951;32;20514;-82
2022/03/09 09:02:58;;;;;;;22.92;10.70;;;;;;;6.36;44.79;100946.69;4438294;32;20109;-82
2022/03/09 09:05:26;;;;;;;23.02;10.18;;;;;;;6.53;44.27;100949.56;4419414;32;20089;-82
2022/03/09 09:07:54;;;;;;;25.25;11.12;;;;;;;6.53;44.43;100939.09;4419439;32;20186;-83
2022/03/09 09:10:28;;;;;;;20.30;11.20;;;;;;;6.54;44.14;100931.28;4435384;32;20466;-84
2022/03/09 09:12:57;;;;;;;28.23;11.85;;;;;;;6.53;44.16;100934.72;4435205;32;20541;-80
2022/03/09 09:15:26;;;;;;;22.90;11.30;;;;;;;6.64;44.31;100932.25;4435237;32;20222;-81
2022/03/09 09:17:59;;;;;;;22.40;11.05;;;;;;;6.70;43.68;100941.06;4435259;32;20085;-82
2022/03/09 09:20:46;;;;;;;21.33;10.93;;;;;;;6.34;44.86;100941.47;4435218;32;20136;-81
2022/03/09 09:23:13;;;;;;;19.37;10.50;;;;;;;6.42;44.52;100934.59;4421130;32;20106;-83
2022/03/09 09:25:44;;;;;;;22.80;11.57;;;;;;;6.49;44.83;100926.81;4408210;32;20085;-82
2022/03/09 09:28:12;;;;;;;19.55;10.73;;;;;;;6.73;44.52;100931.50;4434777;32;20441;-82
2022/03/09 09:30:40;;;;;;;26.73;12.45;;;;;;;7.14;44.18;100927.63;4435645;32;20101;-82
2022/03/09 09:33:07;;;;;;;29.35;12.43;;;;;;;7.35;43.56;100932.22;4435115;32;20125;-82
2022/03/09 09:35:35;;;;;;;21.40;11.85;;;;;;;7.57;43.65;100932.41;4421388;32;20473;-83
2022/03/09 09:38:06;;;;;;;33.15;13.57;;;;;;;7.97;42.42;100940.62;4432510;32;20097;-79
2022/03/09 09:40:36;;;;;;;33.00;14.00;;;;;;;7.83;43.59;100937.88;4406698;32;20543;-78
2022/03/09 09:43:08;;;;;;;24.77;12.15;;;;;;;8.02;42.03;100931.91;4421129;32;20171;-77
2022/03/09 09:45:35;;;;;;;25.12;12.15;;;;;;;7.81;42.66;100930.00;4422758;32;20077;-80
2022/03/09 09:48:05;;;;;;;20.85;11.20;;;;;;;8.21;42.17;100934.66;4422918;32;20132;-79
2022/03/09 09:50:33;;;;;;;22.08;11.73;;;;;;;8.44;41.62;100942.69;4407131;32;20101;-80
2022/03/09 09:53:05;;;;;;;23.98;11.95;;;;;;;8.70;41.12;100941.09;4420865;32;20493;-79
2022/03/09 09:55:33;;;;;;;18.92;10.43;;;;;;;9.00;40.53;100937.72;4421332;32;20072;-79
2022/03/09 09:58:01;;;;;;;23.38;10.88;;;;;;;8.71;40.92;100936.72;4422256;32;20139;-80
2022/03/09 10:00:29;;;;;;;20.77;11.15;;;;;;;8.73;41.19;100941.13;4407353;32;20641;-79
2022/03/09 10:03:05;;;;;;;19.60;11.25;;;;;;;8.45;41.52;100929.59;4408115;32;20718;-80
2022/03/09 10:05:33;;;;;;;20.52;11.60;;;;;;;8.47;41.64;100934.84;4422808;32;20089;-79
2022/03/09 10:08:03;;;;;;;21.73;11.73;;;;;;;8.29;42.32;100933.84;4433490;32;20108;-79
2022/03/09 10:10:37;;;;;;;24.15;11.20;;;;;;;8.29;42.21;100936.47;4436120;32;20089;-79
2022/03/09 10:13:15;;;;;;;21.42;10.98;;;;;;;8.15;42.89;100930.25;4436759;32;20090;-79
2022/03/09 10:15:47;;;;;;;15.00;9.75;;;;;;;8.63;41.47;100935.81;4435389;32;20097;-79
2022/03/09 10:18:20;;;;;;;22.02;11.00;;;;;;;8.90;40.53;100933.28;4436798;32;20100;-78
2022/03/09 10:20:50;;;;;;;17.40;11.00;;;;;;;8.77;41.07;100928.87;4422413;32;20109;-77
2022/03/09 10:23:20;;;;;;;23.50;10.98;;;;;;;8.88;41.13;100924.53;4435705;32;20186;-76
2022/03/09 10:25:48;;;;;;;19.17;10.93;;;;;;;9.40;43.84;100913.25;4415242;32;20105;-76
2022/03/09 10:28:15;;;;;;;19.45;10.10;;;;;;;9.72;40.04;100910.69;4406294;32;20537;-77
2022/03/09 10:30:43;;;;;;;19.62;10.00;;;;;;;10.05;38.99;100912.41;4420339;32;20690;-77
2022/03/09 10:33:12;;;;;;;18.30;10.52;;;;;;;9.82;39.16;100896.59;4409381;32;20117;-77
2022/03/09 10:35:46;;;;;;;17.65;9.68;;;;;;;9.95;39.57;100901.00;4425810;32;20107;-77
2022/03/09 10:38:17;;;;;;;16.48;9.68;;;;;;;9.60;39.49;100892.25;4426460;32;20471;-77
2022/03/09 10:40:47;;;;;;;18.70;9.80;;;;;;;9.68;39.89;100888.75;4414040;32;20132;-77
2022/03/09 10:43:34;;;;;;;14.27;8.13;;;;;;;9.76;39.90;100879.09;4418682;32;20209;-77
2022/03/09 10:46:04;;;;;;;;;;;;;;;10.24;38.39;100881.63;4419904;32;20107;-77
2022/03/09 10:49:00;;;;;;;20.15;8.88;;;;;;;10.11;39.30;100872.91;4429868;32;20359;-77
2022/03/09 10:51:36;;;;;;;14.32;9.23;;;;;;;10.20;38.59;100869.34;4416633;32;20123;-77
2022/03/09 10:54:06;;;;;;;17.30;9.03;;;;;;;9.93;39.24;100863.28;4430585;32;20131;-77
2022/03/09 10:56:35;;;;;;;16.60;9.07;;;;;;;10.22;38.80;100854.44;4434818;32;20080;-78
2022/03/09 10:59:21;;;;;;;14.95;9.00;;;;;;;10.22;39.07;100860.56;4414259;32;20181;-77
2022/03/09 11:02:21;;;;;;;14.57;8.95;;;;;;;11.11;37.08;100854.06;4435697;32;20105;-76
2022/03/09 11:05:12;;;;;;;13.18;8.90;;;;;;;13.09;34.65;100847.56;4392851;32;20100;-77
2022/03/09 11:07:41;;;;;;;17.12;8.70;;;;;;;13.66;33.16;100852.84;4422168;32;20744;-77
2022/03/09 11:10:10;;;;;;;22.90;9.13;;;;;;;13.86;32.60;100842.78;4422037;32;20181;-79
2022/03/09 11:12:38;;;;;;;16.70;8.90;;;;;;;14.05;32.45;100840.66;4436871;32;20105;-77
2022/03/09 11:15:07;;;;;;;17.05;8.43;;;;;;;14.60;31.09;100838.75;4434231;32;20117;-74
2022/03/09 11:17:35;;;;;;;22.67;10.02;;;;;;;14.39;31.43;100840.03;4422034;32;20101;-76
2022/03/09 11:20:03;;;;;;;16.35;8.65;;;;;;;14.63;31.50;100838.69;4424558;32;20195;-76
2022/03/09 11:22:30;;;;;;;17.98;9.45;;;;;;;16.17;30.32;100833.16;4437467;32;20737;-74
2022/03/09 11:24:58;;;;;;;19.08;10.23;;;;;;;15.83;29.11;100841.16;4437079;32;20147;-75